createdAt,value
2023-02-06T00:00:01.307Z,86.28
2023-02-06T00:02:27.901Z,85.95
2023-02-06T00:04:54.327Z,85.49
2023-02-06T00:07:20.943Z,85.42
2023-02-06T00:09:47.517Z,85.91
2023-02-06T00:12:13.910Z,85.80
2023-02-06T00:14:40.300Z,85.68
2023-02-06T00:17:06.672Z,85.55
2023-02-06T00:19:33.038Z,86.11
2023-02-06T00:21:59.404Z,85.60
2023-02-06T00:24:26.813Z,85.61
2023-02-06T00:26:53.181Z,85.88
2023-02-06T00:29:19.561Z,86.32
2023-02-06T00:31:45.942Z,85.87
2023-02-06T00:34:12.362Z,86.07
2023-02-06T00:36:38.748Z,85.69
2023-02-06T00:39:05.122Z,86.15
2023-02-06T00:41:31.715Z,85.98
2023-02-06T00:43:58.094Z,86.02
2023-02-06T00:46:24.745Z,85.95
2023-02-06T00:48:51.369Z,85.44
2023-02-06T00:51:17.734Z,85.52
2023-02-06T00:53:44.111Z,85.27
2023-02-06T00:56:10.491Z,85.53
2023-02-06T00:58:37.081Z,85.47
2023-02-06T01:01:03.450Z,85.37
2023-02-06T01:03:29.827Z,85.49
2023-02-06T01:05:56.406Z,85.73
2023-02-06T01:08:22.778Z,85.67
2023-02-06T01:10:49.146Z,85.60
2023-02-06T01:13:15.513Z,85.71
2023-02-06T01:15:42.836Z,85.88
2023-02-06T01:18:09.217Z,86.27
2023-02-06T01:20:35.787Z,85.31
2023-02-06T01:23:02.157Z,85.51
2023-02-06T01:25:28.542Z,85.45
2023-02-06T01:27:54.933Z,85.78
2023-02-06T01:30:21.543Z,85.60
2023-02-06T01:32:47.926Z,85.97
2023-02-06T01:35:14.515Z,85.94
2023-02-06T01:37:40.908Z,86.03
2023-02-06T01:40:07.277Z,85.52
2023-02-06T01:42:33.650Z,85.63
2023-02-06T01:45:00.022Z,85.60
2023-02-06T01:47:26.591Z,85.63
2023-02-06T01:49:52.954Z,85.80
2023-02-06T01:52:19.528Z,85.84
2023-02-06T01:54:45.889Z,85.60
2023-02-06T01:57:12.263Z,85.53
2023-02-06T01:59:38.636Z,85.71
2023-02-06T02:02:05.138Z,86.03
2023-02-06T02:04:31.575Z,85.51
2023-02-06T02:06:58.159Z,85.58
2023-02-06T02:09:24.540Z,85.90
2023-02-06T02:11:51.209Z,86.05
2023-02-06T02:14:17.786Z,86.27
2023-02-06T02:16:44.149Z,86.00
2023-02-06T02:19:10.733Z,85.73
2023-02-06T02:21:37.323Z,85.95
2023-02-06T02:24:03.708Z,86.00
2023-02-06T02:26:30.089Z,85.78
2023-02-06T02:28:56.672Z,86.05
2023-02-06T02:31:23.046Z,86.22
2023-02-06T02:33:49.727Z,85.59
2023-02-06T02:36:16.089Z,85.61
2023-02-06T02:38:42.641Z,85.72
2023-02-06T02:41:08.959Z,85.71
2023-02-06T02:43:35.278Z,85.72
2023-02-06T02:46:01.873Z,85.39
2023-02-06T02:48:28.334Z,86.00
2023-02-06T02:50:54.685Z,85.78
2023-02-06T02:53:21.213Z,86.05
2023-02-06T02:55:47.544Z,86.10
2023-02-06T02:58:14.089Z,85.42
2023-02-06T03:00:40.485Z,85.99
2023-02-06T03:03:09.695Z,85.82
2023-02-06T03:05:36.316Z,85.88
2023-02-06T03:08:02.910Z,85.85
2023-02-06T03:10:29.701Z,86.04
2023-02-06T03:12:56.047Z,85.59
2023-02-06T03:15:22.378Z,85.60
2023-02-06T03:17:48.701Z,85.48
2023-02-06T03:20:15.060Z,86.13
2023-02-06T03:22:41.422Z,85.68
2023-02-06T03:25:07.972Z,85.82
2023-02-06T03:27:34.328Z,85.45
2023-02-06T03:30:00.899Z,85.81
2023-02-06T03:32:27.233Z,85.73
2023-02-06T03:34:53.553Z,85.55
2023-02-06T03:37:19.881Z,86.08
2023-02-06T03:39:46.217Z,85.89
2023-02-06T03:42:12.557Z,86.24
2023-02-06T03:44:38.921Z,85.78
2023-02-06T03:47:05.527Z,85.86
2023-02-06T03:49:31.865Z,86.12
2023-02-06T03:51:58.225Z,85.74
2023-02-06T03:54:24.598Z,85.39
2023-02-06T03:56:51.163Z,85.47
2023-02-06T03:59:17.491Z,85.61
2023-02-06T04:01:44.032Z,85.64
2023-02-06T04:04:10.361Z,85.85
2023-02-06T04:06:36.679Z,86.09
2023-02-06T04:09:03.210Z,85.87
2023-02-06T04:11:29.528Z,85.71
2023-02-06T04:13:56.058Z,85.98
2023-02-06T04:16:22.461Z,85.54
2023-02-06T04:18:48.846Z,86.12
2023-02-06T04:21:15.141Z,85.83
2023-02-06T04:23:41.506Z,85.78
2023-02-06T04:26:07.852Z,85.40
2023-02-06T04:28:34.190Z,85.66
2023-02-06T04:31:00.718Z,85.54
2023-02-06T04:33:27.100Z,86.03
2023-02-06T04:38:40.616Z,85.86
2023-02-06T04:41:06.988Z,85.58
2023-02-06T04:43:33.322Z,85.60
2023-02-06T04:45:59.679Z,85.49
2023-02-06T04:48:26.044Z,85.57
2023-02-06T04:50:52.392Z,85.67
2023-02-06T04:53:18.729Z,85.48
2023-02-06T04:55:45.276Z,86.00
2023-02-06T04:58:11.603Z,85.60
2023-02-06T05:00:38.867Z,86.02
2023-02-06T05:03:05.239Z,85.77
2023-02-06T05:05:31.617Z,85.68
2023-02-06T05:07:58.149Z,85.81
2023-02-06T05:10:24.508Z,85.69
2023-02-06T05:12:50.845Z,85.60
2023-02-06T05:15:17.178Z,85.69
2023-02-06T05:17:43.507Z,85.54
2023-02-06T05:20:10.075Z,85.75
2023-02-06T05:22:36.412Z,86.11
2023-02-06T05:25:03.000Z,86.19
2023-02-06T05:27:29.350Z,85.70
2023-02-06T05:29:55.699Z,85.54
2023-02-06T05:32:22.044Z,85.85
2023-02-06T05:34:48.404Z,85.61
2023-02-06T05:37:14.988Z,86.03
2023-02-06T05:39:41.627Z,85.49
2023-02-06T05:42:07.972Z,85.77
2023-02-06T05:44:34.553Z,85.81
2023-02-06T05:47:01.106Z,85.66
2023-02-06T05:49:27.436Z,85.93
2023-02-06T05:51:54.004Z,86.24
2023-02-06T05:54:20.352Z,85.90
2023-02-06T05:56:46.926Z,85.87
2023-02-06T05:59:13.251Z,85.40
2023-02-06T06:01:39.580Z,85.72
2023-02-06T06:04:06.007Z,85.97
2023-02-06T06:06:32.368Z,85.90
2023-02-06T06:08:58.708Z,85.63
2023-02-06T06:11:25.273Z,85.52
2023-02-06T06:13:51.598Z,85.79
2023-02-06T06:16:18.223Z,85.84
2023-02-06T06:18:44.641Z,85.89
2023-02-06T06:21:11.188Z,86.17
2023-02-06T06:23:37.554Z,85.78
2023-02-06T06:26:04.151Z,85.68
2023-02-06T06:28:30.689Z,85.39
2023-02-06T06:30:57.051Z,85.54
2023-02-06T06:33:23.429Z,85.65
2023-02-06T06:35:49.757Z,85.58
2023-02-06T06:38:16.103Z,85.88
2023-02-06T06:40:42.650Z,85.63
2023-02-06T06:43:08.996Z,85.77
2023-02-06T06:45:35.714Z,85.82
2023-02-06T06:48:02.166Z,85.68
2023-02-06T06:50:28.493Z,85.40
2023-02-06T06:52:55.031Z,85.59
2023-02-06T06:55:21.322Z,85.84
2023-02-06T06:57:47.651Z,85.80
2023-02-06T07:00:14.245Z,85.87
2023-02-06T07:02:40.641Z,86.00
2023-02-06T07:05:07.263Z,86.11
2023-02-06T07:07:33.641Z,86.23
2023-02-06T07:10:00.004Z,85.46
2023-02-06T07:12:26.330Z,85.99
2023-02-06T07:14:52.671Z,85.96
2023-02-06T07:17:19.002Z,85.71
2023-02-06T07:19:45.337Z,85.48
2023-02-06T07:22:12.076Z,86.19
2023-02-06T07:24:38.705Z,86.04
2023-02-06T07:27:05.067Z,85.59
2023-02-06T07:29:31.429Z,85.79
2023-02-06T07:31:57.779Z,85.33
2023-02-06T07:34:24.572Z,85.94
2023-02-06T07:36:50.924Z,85.85
2023-02-06T07:39:17.284Z,85.48
2023-02-06T07:41:43.650Z,85.50
2023-02-06T07:44:10.001Z,86.06
2023-02-06T07:46:36.331Z,85.63
2023-02-06T07:49:03.477Z,85.52
2023-02-06T07:51:29.832Z,85.52
2023-02-06T07:53:56.575Z,85.87
2023-02-06T07:56:22.932Z,85.72
2023-02-06T07:58:49.786Z,85.77
2023-02-06T08:01:16.213Z,85.36
2023-02-06T08:03:42.861Z,85.91
2023-02-06T08:06:09.724Z,85.97
2023-02-06T08:08:36.292Z,85.74
2023-02-06T08:11:02.620Z,86.03
2023-02-06T08:13:29.192Z,85.65
2023-02-06T08:15:56.036Z,85.88
2023-02-06T08:18:22.390Z,85.55
2023-02-06T08:20:48.716Z,85.79
2023-02-06T08:23:15.055Z,85.51
2023-02-06T08:25:41.393Z,85.48
2023-02-06T08:28:07.769Z,85.92
2023-02-06T08:30:34.235Z,86.14
2023-02-06T08:33:00.614Z,85.97
2023-02-06T08:35:26.973Z,85.82
2023-02-06T08:37:53.556Z,85.74
2023-02-06T08:40:19.919Z,85.47
2023-02-06T08:42:46.253Z,85.95
2023-02-06T08:45:12.601Z,85.69
2023-02-06T08:47:38.937Z,85.65
2023-02-06T08:50:05.285Z,85.59
2023-02-06T08:52:31.660Z,85.83
2023-02-06T08:54:58.250Z,85.68
2023-02-06T08:57:24.617Z,85.64
2023-02-06T08:59:51.718Z,85.53
2023-02-06T09:02:18.095Z,85.25
2023-02-06T09:04:44.454Z,85.70
2023-02-06T09:07:10.791Z,85.56
2023-02-06T09:09:37.121Z,85.77
2023-02-06T09:12:03.489Z,85.44
2023-02-06T09:14:29.849Z,85.54
2023-02-06T09:16:56.207Z,85.55
2023-02-06T09:19:22.551Z,85.78
2023-02-06T09:21:48.882Z,85.68
2023-02-06T09:24:15.232Z,85.80
2023-02-06T09:26:58.146Z,85.90
2023-02-06T09:29:25.187Z,85.31
2023-02-06T09:31:51.757Z,85.37
2023-02-06T09:34:18.356Z,85.75
2023-02-06T09:36:44.728Z,85.53
2023-02-06T09:39:11.313Z,86.02
2023-02-06T09:41:37.656Z,85.70
2023-02-06T09:44:04.212Z,85.65
2023-02-06T09:46:30.736Z,85.89
2023-02-06T09:48:57.629Z,85.95
2023-02-06T09:51:23.978Z,85.81
2023-02-06T09:53:50.563Z,85.52
2023-02-06T09:56:16.908Z,85.80
2023-02-06T09:58:43.231Z,85.22
2023-02-06T10:01:10.021Z,85.32
2023-02-06T10:03:36.373Z,85.46
2023-02-06T10:06:02.701Z,85.90
2023-02-06T10:08:29.022Z,85.91
2023-02-06T10:10:55.350Z,85.66
2023-02-06T10:13:21.746Z,85.38
2023-02-06T10:15:48.351Z,85.32
2023-02-06T10:18:14.692Z,85.42
2023-02-06T10:20:41.016Z,85.21
2023-02-06T10:23:07.379Z,85.36
2023-02-06T10:25:34.331Z,85.55
2023-02-06T10:28:00.763Z,85.32
2023-02-06T10:30:27.127Z,85.48
2023-02-06T10:32:53.468Z,85.44
2023-02-06T10:35:19.821Z,85.42
2023-02-06T10:37:46.641Z,85.41
2023-02-06T10:40:13.067Z,85.40
2023-02-06T10:42:39.468Z,85.74
2023-02-06T10:45:18.951Z,85.63
2023-02-06T10:47:46.613Z,85.44
2023-02-06T10:50:12.968Z,85.42
2023-02-06T10:52:39.303Z,86.10
2023-02-06T10:55:05.671Z,85.67
2023-02-06T10:57:32.042Z,85.31
2023-02-06T10:59:58.402Z,85.50
2023-02-06T11:02:24.747Z,85.54
2023-02-06T11:04:51.360Z,85.98
2023-02-06T11:07:17.720Z,85.52
2023-02-06T11:09:44.323Z,85.65
2023-02-06T11:12:10.741Z,85.78
2023-02-06T11:14:37.351Z,85.36
2023-02-06T11:17:03.726Z,85.29
2023-02-06T11:19:30.359Z,85.41
2023-02-06T11:21:56.758Z,85.18
2023-02-06T11:24:23.376Z,85.49
2023-02-06T11:26:49.740Z,85.37
2023-02-06T11:29:16.366Z,85.71
2023-02-06T11:31:45.560Z,85.62
2023-02-06T11:34:11.953Z,85.74
2023-02-06T11:36:38.279Z,85.54
2023-02-06T11:39:04.666Z,85.17
2023-02-06T11:41:31.049Z,85.03
2023-02-06T11:43:57.470Z,85.84
2023-02-06T11:46:23.860Z,85.29
2023-02-06T11:48:50.194Z,85.26
2023-02-06T11:51:16.543Z,85.30
2023-02-06T11:53:42.876Z,85.39
2023-02-06T11:56:09.504Z,85.10
2023-02-06T11:58:35.880Z,85.35
2023-02-06T12:01:02.501Z,85.00
2023-02-06T12:03:28.908Z,84.84
2023-02-06T12:05:57.208Z,85.38
2023-02-06T12:08:24.850Z,85.06
2023-02-06T12:10:51.222Z,85.03
2023-02-06T12:13:17.537Z,85.34
2023-02-06T12:15:47.285Z,85.13
2023-02-06T12:18:14.389Z,85.16
2023-02-06T12:20:40.958Z,85.27
2023-02-06T12:23:07.307Z,84.99
2023-02-06T12:25:33.859Z,85.46
2023-02-06T12:28:00.547Z,85.56
2023-02-06T12:30:26.920Z,85.52
2023-02-06T12:32:53.288Z,85.45
2023-02-06T12:35:19.618Z,85.18
2023-02-06T12:37:45.946Z,85.28
2023-02-06T12:40:12.305Z,85.12
2023-02-06T12:42:38.656Z,85.03
2023-02-06T12:45:05.037Z,85.02
2023-02-06T12:47:31.390Z,84.94
2023-02-06T12:49:57.755Z,85.31
2023-02-06T12:52:24.082Z,85.22
2023-02-06T12:54:50.404Z,84.88
2023-02-06T12:57:16.752Z,85.10
2023-02-06T12:59:56.678Z,85.22
2023-02-06T13:02:24.464Z,85.05
2023-02-06T13:04:50.857Z,85.13
2023-02-06T13:07:17.509Z,85.03
2023-02-06T13:09:43.852Z,85.05
2023-02-06T13:12:10.447Z,85.15
2023-02-06T13:14:38.231Z,85.03
2023-02-06T13:17:05.971Z,84.65
2023-02-06T13:19:32.340Z,84.62
2023-02-06T13:21:58.987Z,84.59
2023-02-06T13:24:25.341Z,84.47
2023-02-06T13:26:51.719Z,84.80
2023-02-06T13:29:18.061Z,85.16
2023-02-06T13:31:44.454Z,84.62
2023-02-06T13:34:10.820Z,85.18
2023-02-06T13:36:37.195Z,84.69
2023-02-06T13:39:03.518Z,85.44
2023-02-06T13:41:29.838Z,84.84
2023-02-06T13:43:56.434Z,84.76
2023-02-06T13:46:22.801Z,84.73
2023-02-06T13:48:49.468Z,84.89
2023-02-06T13:51:15.787Z,84.88
2023-02-06T13:53:42.118Z,84.88
2023-02-06T13:56:08.463Z,84.91
2023-02-06T13:58:35.062Z,84.95
2023-02-06T14:01:01.406Z,84.75
2023-02-06T14:03:27.999Z,85.02
2023-02-06T14:05:54.320Z,84.97
2023-02-06T14:08:20.939Z,85.34
2023-02-06T14:10:47.307Z,84.59
2023-02-06T14:13:13.666Z,84.65
2023-02-06T14:15:40.275Z,84.39
2023-02-06T14:18:06.997Z,85.03
2023-02-06T14:20:33.362Z,85.18
2023-02-06T14:23:00.005Z,85.00
2023-02-06T14:25:26.335Z,84.75
2023-02-06T14:27:53.006Z,84.82
2023-02-06T14:30:19.363Z,84.60
2023-02-06T14:32:45.695Z,84.35
2023-02-06T14:35:12.014Z,84.53
2023-02-06T14:37:38.597Z,84.67
2023-02-06T14:40:05.019Z,84.27
2023-02-06T14:42:31.753Z,84.41
2023-02-06T14:44:58.174Z,84.58
2023-02-06T14:47:24.848Z,84.28
2023-02-06T14:49:51.253Z,84.26
2023-02-06T14:52:17.649Z,84.44
2023-02-06T14:54:43.990Z,84.41
2023-02-06T14:57:10.364Z,84.42
2023-02-06T14:59:36.801Z,84.50
2023-02-06T15:02:03.195Z,84.41
2023-02-06T15:04:29.590Z,84.61
2023-02-06T15:06:55.948Z,84.26
2023-02-06T15:09:22.451Z,84.38
2023-02-06T15:11:48.813Z,84.67
2023-02-06T15:14:15.151Z,84.68
2023-02-06T15:16:41.499Z,84.21
2023-02-06T15:19:07.829Z,84.27
2023-02-06T15:21:34.194Z,84.37
2023-02-06T15:24:00.539Z,84.65
2023-02-06T15:26:26.869Z,84.62
2023-02-06T15:28:53.460Z,84.51
2023-02-06T15:31:19.848Z,84.41
2023-02-06T15:33:46.227Z,84.90
2023-02-06T15:36:12.564Z,84.89
2023-02-06T15:38:38.895Z,84.66
2023-02-06T15:41:05.244Z,84.64
2023-02-06T15:43:31.582Z,84.69
2023-02-06T15:45:57.984Z,84.71
2023-02-06T15:48:24.359Z,85.07
2023-02-06T15:50:50.679Z,84.34
2023-02-06T15:53:17.237Z,84.40
2023-02-06T15:55:43.574Z,84.53
2023-02-06T15:58:10.197Z,84.70
2023-02-06T16:00:36.790Z,84.58
2023-02-06T16:03:03.567Z,84.54
2023-02-06T16:05:29.919Z,84.76
2023-02-06T16:07:56.550Z,84.59
2023-02-06T16:10:22.901Z,84.68
2023-02-06T16:12:49.249Z,84.67
2023-02-06T16:15:15.595Z,84.85
2023-02-06T16:17:41.955Z,84.34
2023-02-06T16:20:08.373Z,84.99
2023-02-06T16:22:34.749Z,84.62
2023-02-06T16:25:01.078Z,84.95
2023-02-06T16:27:27.408Z,84.53
2023-02-06T16:29:53.745Z,84.11
2023-02-06T16:32:20.076Z,84.33
2023-02-06T16:34:46.437Z,84.43
2023-02-06T16:37:12.793Z,84.24
2023-02-06T16:39:39.132Z,84.39
2023-02-06T16:42:05.480Z,84.53
2023-02-06T16:44:43.952Z,84.10
2023-02-06T16:47:11.289Z,84.21
2023-02-06T16:49:37.615Z,84.26
2023-02-06T16:52:03.959Z,84.60
2023-02-06T16:54:30.314Z,84.34
2023-02-06T16:56:56.662Z,84.41
2023-02-06T16:59:22.991Z,84.01
2023-02-06T17:01:49.312Z,84.61
2023-02-06T17:04:15.652Z,84.67
2023-02-06T17:06:41.927Z,84.73
2023-02-06T17:09:08.253Z,84.21
2023-02-06T17:11:34.570Z,83.87
2023-02-06T17:14:00.921Z,84.03
2023-02-06T17:16:27.254Z,84.05
2023-02-06T17:18:53.625Z,83.98
2023-02-06T17:21:19.989Z,84.22
2023-02-06T17:23:46.329Z,84.12
2023-02-06T17:26:12.658Z,84.56
2023-02-06T17:28:38.985Z,84.33
2023-02-06T17:31:05.473Z,83.88
2023-02-06T17:33:31.883Z,84.28
2023-02-06T17:35:58.236Z,84.14
2023-02-06T17:38:24.573Z,84.78
2023-02-06T17:40:50.905Z,84.38
2023-02-06T17:43:17.254Z,83.95
2023-02-06T17:45:43.600Z,83.95
2023-02-06T17:48:09.939Z,84.20
2023-02-06T17:50:36.564Z,84.34
2023-02-06T17:53:03.035Z,84.46
2023-02-06T17:55:29.404Z,84.03
2023-02-06T17:57:56.042Z,84.08
2023-02-06T18:00:22.411Z,84.26
2023-02-06T18:02:49.092Z,84.24
2023-02-06T18:05:15.443Z,84.42
2023-02-06T18:07:42.078Z,84.63
2023-02-06T18:10:08.412Z,84.61
2023-02-06T18:12:35.001Z,84.35
2023-02-06T18:15:01.361Z,84.55
2023-02-06T18:17:27.981Z,84.53
2023-02-06T18:19:54.339Z,84.47
2023-02-06T18:22:20.687Z,84.72
2023-02-06T18:24:47.035Z,84.17
2023-02-06T18:27:13.646Z,84.66
2023-02-06T18:29:48.989Z,84.40
2023-02-06T18:32:16.559Z,84.13
2023-02-06T18:34:42.895Z,83.90
2023-02-06T18:37:09.249Z,84.08
2023-02-06T18:39:35.605Z,84.31
2023-02-06T18:42:02.544Z,84.61
2023-02-06T18:44:28.915Z,85.03
2023-02-06T18:46:55.533Z,84.39
2023-02-06T18:49:21.894Z,84.37
2023-02-06T18:51:48.215Z,84.54
2023-02-06T18:54:14.564Z,84.40
2023-02-06T18:56:40.892Z,84.27
2023-02-06T18:59:07.224Z,84.37
2023-02-06T19:01:33.810Z,84.20
2023-02-06T19:04:00.199Z,84.33
2023-02-06T19:06:26.536Z,84.20
2023-02-06T19:08:52.869Z,84.45
2023-02-06T19:11:19.228Z,84.48
2023-02-06T19:13:45.633Z,84.37
2023-02-06T19:16:11.993Z,84.47
2023-02-06T19:18:41.858Z,84.36
2023-02-06T19:21:08.647Z,84.59
2023-02-06T19:23:34.968Z,84.73
2023-02-06T19:26:01.333Z,84.80
2023-02-06T19:28:27.627Z,84.55
2023-02-06T19:30:54.064Z,84.46
2023-02-06T19:33:20.474Z,84.55
2023-02-06T19:35:46.812Z,84.37
2023-02-06T19:38:13.357Z,84.58
2023-02-06T19:40:39.746Z,84.45
2023-02-06T19:43:06.092Z,84.73
2023-02-06T19:45:32.466Z,84.31
2023-02-06T19:47:58.858Z,84.23
2023-02-06T19:50:25.208Z,84.20
2023-02-06T19:52:51.537Z,84.24
2023-02-06T19:55:17.880Z,84.77
2023-02-06T19:57:44.244Z,84.78
2023-02-06T20:00:10.598Z,84.42
2023-02-06T20:02:36.929Z,84.32
2023-02-06T20:05:03.257Z,84.94
2023-02-06T20:07:29.592Z,84.92
2023-02-06T20:09:55.987Z,84.44
2023-02-06T20:12:22.350Z,84.24
2023-02-06T20:14:48.701Z,84.78
2023-02-06T20:17:15.248Z,84.96
2023-02-06T20:19:41.569Z,84.49
2023-02-06T20:22:07.928Z,84.29
2023-02-06T20:24:34.249Z,84.14
2023-02-06T20:27:00.578Z,84.26
2023-02-06T20:29:26.914Z,84.21
2023-02-06T20:31:53.331Z,84.03
2023-02-06T20:34:19.950Z,84.83
2023-02-06T20:36:46.312Z,84.38
2023-02-06T20:39:12.903Z,84.34
2023-02-06T20:41:39.236Z,84.08
2023-02-06T20:44:05.607Z,84.61
2023-02-06T20:46:31.988Z,84.35
2023-02-06T20:48:58.380Z,84.35
2023-02-06T20:51:24.712Z,84.22
2023-02-06T20:53:51.048Z,84.38
2023-02-06T20:56:17.401Z,84.10
2023-02-06T20:58:43.957Z,83.77
2023-02-06T21:01:10.328Z,83.75
2023-02-06T21:03:36.702Z,83.72
2023-02-06T21:06:03.070Z,83.77
2023-02-06T21:08:29.439Z,83.85
2023-02-06T21:10:56.028Z,83.77
2023-02-06T21:13:22.360Z,83.73
2023-02-06T21:15:48.789Z,83.63
2023-02-06T21:18:15.200Z,84.40
2023-02-06T21:20:41.744Z,84.34
2023-02-06T21:23:08.270Z,84.26
2023-02-06T21:25:34.629Z,83.93
2023-02-06T21:28:01.001Z,83.73
2023-02-06T21:30:27.389Z,83.68
2023-02-06T21:32:53.724Z,83.82
2023-02-06T21:35:20.068Z,83.73
2023-02-06T21:37:46.408Z,83.85
2023-02-06T21:40:12.726Z,83.92
2023-02-06T21:42:39.096Z,83.86
2023-02-06T21:45:05.444Z,83.49
2023-02-06T21:47:31.782Z,83.36
2023-02-06T21:49:58.112Z,83.36
2023-02-06T21:52:24.432Z,82.78
2023-02-06T21:54:50.765Z,82.88
2023-02-06T21:57:17.120Z,83.14
2023-02-06T21:59:43.461Z,82.98
2023-02-06T22:02:09.807Z,83.13
2023-02-06T22:04:36.167Z,83.14
2023-02-06T22:07:02.523Z,83.14
2023-02-06T22:09:28.844Z,82.99
2023-02-06T22:11:55.390Z,83.44
2023-02-06T22:14:22.034Z,83.34
2023-02-06T22:16:48.362Z,83.16
2023-02-06T22:19:14.688Z,83.39
2023-02-06T22:21:41.050Z,83.88
2023-02-06T22:24:07.393Z,83.78
2023-02-06T22:26:33.756Z,83.97
2023-02-06T22:29:00.320Z,83.11
2023-02-06T22:31:26.910Z,83.38
2023-02-06T22:33:53.256Z,83.60
2023-02-06T22:36:19.668Z,83.92
2023-02-06T22:38:46.022Z,83.71
2023-02-06T22:41:12.439Z,83.67
2023-02-06T22:43:38.792Z,83.46
2023-02-06T22:46:05.288Z,84.18
2023-02-06T22:48:31.700Z,83.78
2023-02-06T22:50:58.071Z,83.54
2023-02-06T22:53:24.611Z,83.30
2023-02-06T22:55:50.939Z,83.81
2023-02-06T22:58:17.257Z,83.69
2023-02-06T23:00:43.623Z,83.68
2023-02-06T23:03:09.981Z,83.22
2023-02-06T23:05:36.649Z,83.95
2023-02-06T23:08:03.237Z,83.50
2023-02-06T23:10:29.585Z,84.03
2023-02-06T23:12:55.923Z,84.11
2023-02-06T23:15:22.304Z,84.29
2023-02-06T23:17:48.647Z,83.91
2023-02-06T23:20:14.977Z,83.80
2023-02-06T23:22:41.359Z,83.68
2023-02-06T23:25:07.718Z,83.65
2023-02-06T23:27:35.020Z,83.83
2023-02-06T23:30:01.350Z,83.96
2023-02-06T23:32:27.704Z,83.74
2023-02-06T23:34:54.055Z,83.86
2023-02-06T23:37:20.405Z,83.81
2023-02-06T23:39:46.732Z,83.98
2023-02-06T23:42:13.084Z,83.57
2023-02-06T23:44:39.419Z,84.20
2023-02-06T23:47:05.766Z,83.74
2023-02-06T23:49:32.139Z,84.41
2023-02-06T23:51:58.490Z,83.45
2023-02-06T23:54:24.828Z,83.88
2023-02-06T23:56:51.197Z,83.83
2023-02-06T23:59:17.568Z,83.83
